Time;durP1;ratioP1;P1;durP2;ratioP2;P2;SDS_P1;SDS_P2;PMS_P1;PMS_P2;Temp;Humidity;BMP_temperature;BMP_pressure;BME280_temperature;BME280_humidity;BME280_pressure;Samples;Min_cycle;Max_cycle;Signal;HPM_P1;HPM_P2
2022/09/14 00:01:05;;;;;;;6.95;1.80;;;12.60;99.90;;;;;;4958409;28;20059;-73
2022/09/14 00:03:31;;;;;;;5.53;1.52;;;12.60;99.90;;;;;;4975739;28;20055;-73
2022/09/14 00:06:02;;;;;;;5.50;1.70;;;12.60;99.90;;;;;;4975817;28;20450;-71
2022/09/14 00:08:28;;;;;;;5.90;1.40;;;12.60;99.90;;;;;;4958625;28;20137;-72
2022/09/14 00:10:53;;;;;;;6.03;1.70;;;12.50;99.90;;;;;;4958236;28;20131;-73
2022/09/14 00:13:19;;;;;;;5.63;1.55;;;12.60;99.90;;;;;;4975200;28;20042;-73
2022/09/14 00:15:45;;;;;;;7.20;1.92;;;12.60;99.90;;;;;;4975509;28;20376;-74
2022/09/14 00:18:11;;;;;;;4.03;1.50;;;12.50;99.90;;;;;;4975564;28;20051;-74
2022/09/14 00:20:37;;;;;;;4.72;1.50;;;12.60;99.90;;;;;;4975463;28;20047;-74
2022/09/14 00:23:04;;;;;;;5.53;1.70;;;12.50;99.90;;;;;;4975435;28;20053;-73
2022/09/14 00:25:30;;;;;;;9.55;1.70;;;12.50;99.90;;;;;;4958493;28;20050;-72
2022/09/14 00:27:56;;;;;;;4.07;1.60;;;12.50;99.90;;;;;;4957249;28;20651;-73
2022/09/14 00:30:22;;;;;;;5.30;1.67;;;12.50;99.90;;;;;;4957720;28;20125;-73
2022/09/14 00:32:48;;;;;;;3.53;1.50;;;12.50;99.90;;;;;;4975165;28;20122;-73
2022/09/14 00:35:14;;;;;;;7.13;2.00;;;12.40;99.90;;;;;;4975214;28;20047;-74
2022/09/14 00:37:40;;;;;;;5.75;1.90;;;12.40;99.90;;;;;;4957974;28;20053;-74
2022/09/14 00:40:06;;;;;;;4.40;1.55;;;12.30;99.90;;;;;;4975015;28;20105;-74
2022/09/14 00:42:32;;;;;;;4.03;1.48;;;12.30;99.90;;;;;;4974652;28;20050;-71
2022/09/14 00:45:02;;;;;;;5.47;1.75;;;12.20;99.90;;;;;;4957564;28;20043;-70
2022/09/14 00:47:30;;;;;;;5.55;1.60;;;12.20;99.90;;;;;;4975072;28;20057;-73
2022/09/14 00:49:59;;;;;;;5.50;1.88;;;12.20;99.90;;;;;;4974828;28;20379;-73
2022/09/14 00:52:28;;;;;;;5.53;1.70;;;12.20;99.90;;;;;;4974722;28;20051;-72
2022/09/14 00:55:01;;;;;;;4.90;1.40;;;12.10;99.90;;;;;;4974713;28;20491;-74
2022/09/14 00:57:31;;;;;;;3.78;1.67;;;12.10;99.90;;;;;;4974696;28;20574;-74
2022/09/14 00:59:57;;;;;;;7.95;1.50;;;12.20;99.90;;;;;;4957126;28;20154;-74
2022/09/14 01:02:25;;;;;;;5.57;1.77;;;12.10;99.90;;;;;;4941257;28;20066;-74
2022/09/14 01:04:51;;;;;;;4.43;1.75;;;12.10;99.90;;;;;;4974574;28;20065;-74
2022/09/14 01:07:23;;;;;;;3.95;1.60;;;12.20;99.90;;;;;;4973745;28;20058;-73
2022/09/14 01:10:03;;;;;;;7.33;1.60;;;12.10;99.90;;;;;;4974332;28;20050;-74
2022/09/14 01:13:03;;;;;;;5.22;1.58;;;12.10;99.90;;;;;;4957728;28;20333;-74
2022/09/14 01:15:34;;;;;;;5.25;1.50;;;12.10;99.90;;;;;;4956932;28;20423;-74
2022/09/14 01:18:07;;;;;;;4.13;1.50;;;12.00;99.90;;;;;;4974209;28;20510;-74
2022/09/14 01:20:43;;;;;;;7.50;1.75;;;12.00;99.90;;;;;;4974263;28;20051;-74
2022/09/14 01:23:13;;;;;;;4.07;1.60;;;11.90;99.90;;;;;;4957165;28;20055;-74
2022/09/14 01:25:44;;;;;;;6.43;1.70;;;11.90;99.90;;;;;;4974030;28;20046;-72
2022/09/14 01:28:21;;;;;;;5.22;1.90;;;11.80;99.90;;;;;;4974256;28;20399;-74
2022/09/14 01:30:51;;;;;;;5.40;1.83;;;11.80;99.90;;;;;;4974116;28;20053;-73
2022/09/14 01:33:25;;;;;;;3.60;1.52;;;11.70;99.90;;;;;;4974182;28;20077;-73
2022/09/14 01:35:57;;;;;;;6.80;1.90;;;11.80;99.90;;;;;;4957136;28;20054;-73
2022/09/14 01:38:36;;;;;;;5.97;1.70;;;11.70;99.90;;;;;;4974184;28;20054;-73
2022/09/14 01:41:05;;;;;;;4.90;1.63;;;11.80;99.90;;;;;;4974316;28;20053;-73
2022/09/14 01:43:39;;;;;;;4.65;1.77;;;11.70;99.90;;;;;;4957727;28;20065;-73
2022/09/14 01:46:07;;;;;;;5.40;1.90;;;11.70;99.90;;;;;;4956358;28;20093;-73
2022/09/14 01:48:38;;;;;;;4.63;1.50;;;11.70;99.90;;;;;;4957120;28;20483;-72
2022/09/14 01:51:10;;;;;;;4.63;1.70;;;11.60;99.90;;;;;;4957054;28;20042;-70
2022/09/14 01:53:48;;;;;;;6.18;1.92;;;11.60;99.90;;;;;;4956652;28;20139;-74
2022/09/14 01:56:26;;;;;;;5.07;1.70;;;11.60;99.90;;;;;;4973659;28;20085;-71
2022/09/14 01:59:01;;;;;;;5.90;1.60;;;11.60;99.90;;;;;;4973943;28;20066;-73
2022/09/14 02:01:34;;;;;;;6.40;1.63;;;11.60;99.90;;;;;;4973390;28;20126;-73
2022/09/14 02:04:05;;;;;;;7.43;1.90;;;11.60;99.90;;;;;;4956907;28;20558;-71
2022/09/14 02:06:43;;;;;;;5.28;1.45;;;11.60;99.90;;;;;;4973496;28;20047;-73
2022/09/14 02:09:11;;;;;;;4.88;1.98;;;11.60;99.90;;;;;;4974050;28;20141;-72
2022/09/14 02:11:37;;;;;;;5.35;2.05;;;11.60;99.90;;;;;;4956539;28;20399;-72
2022/09/14 02:14:03;;;;;;;6.45;1.70;;;11.60;99.90;;;;;;4973734;28;20431;-73
2022/09/14 02:16:29;;;;;;;8.00;1.80;;;11.70;99.90;;;;;;4973690;28;20057;-73
2022/09/14 02:18:55;;;;;;;3.95;1.52;;;11.70;99.90;;;;;;4974530;28;20394;-73
2022/09/14 02:21:26;;;;;;;7.38;1.70;;;11.70;99.90;;;;;;4977305;28;20082;-72
2022/09/14 02:23:52;;;;;;;4.55;1.60;;;11.70;99.90;;;;;;4977575;28;20085;-73
2022/09/14 02:26:20;;;;;;;3.92;1.60;;;11.70;99.90;;;;;;4960297;28;20046;-73
2022/09/14 02:28:46;;;;;;;5.57;1.55;;;11.90;99.90;;;;;;4960299;28;20054;-73
2022/09/14 02:31:19;;;;;;;4.65;1.50;;;11.80;99.90;;;;;;4943738;28;20499;-74
2022/09/14 02:34:29;;;;;;;6.97;1.60;;;11.70;99.90;;;;;;4943804;28;20054;-73
2022/09/14 02:37:24;;;;;;;4.28;1.60;;;11.80;99.90;;;;;;4977092;28;20495;-72
2022/09/14 02:39:59;;;;;;;5.40;2.00;;;11.80;99.90;;;;;;4977209;28;20051;-74
2022/09/14 02:42:56;;;;;;;4.32;1.65;;;11.90;99.90;;;;;;4977377;28;20054;-73
2022/09/14 02:45:34;;;;;;;6.80;1.73;;;11.90;99.90;;;;;;4977078;28;20051;-73
2022/09/14 02:48:33;;;;;;;5.18;1.80;;;11.90;99.90;;;;;;4959251;28;20050;-74
2022/09/14 02:51:14;;;;;;;8.13;1.88;;;12.00;99.90;;;;;;4959736;28;20047;-73
2022/09/14 02:53:53;;;;;;;4.60;1.75;;;12.00;99.90;;;;;;4977099;28;20121;-73
2022/09/14 02:56:20;;;;;;;4.95;1.92;;;12.00;99.90;;;;;;4959325;28;20059;-74
2022/09/14 02:58:45;;;;;;;3.85;1.65;;;12.10;99.90;;;;;;4959755;28;20051;-73
2022/09/14 03:01:17;;;;;;;5.70;1.70;;;12.00;99.90;;;;;;4976713;28;20047;-74
2022/09/14 03:03:43;;;;;;;5.05;1.55;;;12.10;99.90;;;;;;4976509;28;20047;-72
2022/09/14 03:06:09;;;;;;;6.55;1.73;;;12.00;99.90;;;;;;4976489;28;20051;-69
2022/09/14 03:08:34;;;;;;;5.75;1.73;;;12.10;99.90;;;;;;4976663;28;20121;-73
2022/09/14 03:11:01;;;;;;;4.97;1.80;;;12.10;99.90;;;;;;4976990;28;20046;-73
2022/09/14 03:13:26;;;;;;;5.47;1.50;;;12.10;99.90;;;;;;4943221;28;20123;-73
2022/09/14 03:15:52;;;;;;;7.30;1.83;;;12.20;99.90;;;;;;4976206;28;20129;-73
2022/09/14 03:18:18;;;;;;;6.35;1.70;;;12.20;99.90;;;;;;4976797;28;20050;-73
2022/09/14 03:20:44;;;;;;;5.97;1.48;;;12.20;99.90;;;;;;4976306;28;20406;-73
2022/09/14 03:23:11;;;;;;;4.45;1.70;;;12.30;99.90;;;;;;4959038;28;20126;-73
2022/09/14 03:25:39;;;;;;;6.70;1.92;;;12.30;99.90;;;;;;4976473;28;20086;-72
2022/09/14 03:28:06;;;;;;;4.13;1.80;;;12.40;99.90;;;;;;4958885;28;20062;-73
2022/09/14 03:30:32;;;;;;;5.63;2.00;;;12.30;99.90;;;;;;4975380;28;20043;-70
2022/09/14 03:32:58;;;;;;;7.60;1.70;;;12.30;99.90;;;;;;4959093;28;20055;-73
2022/09/14 03:35:24;;;;;;;8.98;2.00;;;12.30;99.90;;;;;;4958505;28;20141;-73
2022/09/14 03:37:50;;;;;;;4.93;1.67;;;12.40;99.90;;;;;;4958767;28;20126;-73
2022/09/14 03:40:16;;;;;;;5.15;1.80;;;12.40;99.90;;;;;;4976186;28;20046;-73
2022/09/14 03:42:47;;;;;;;6.18;2.17;;;12.40;99.90;;;;;;4958904;28;20057;-73
2022/09/14 03:45:15;;;;;;;5.35;1.90;;;12.50;99.90;;;;;;4958472;28;20487;-74
2022/09/14 03:47:41;;;;;;;5.80;1.80;;;12.50;99.90;;;;;;4975985;28;20368;-72
2022/09/14 03:50:09;;;;;;;5.18;1.95;;;12.60;99.90;;;;;;4975581;28;20551;-73
2022/09/14 03:52:36;;;;;;;5.63;1.90;;;12.50;99.90;;;;;;4975817;28;20081;-73
2022/09/14 03:55:04;;;;;;;5.72;2.17;;;12.60;99.90;;;;;;4958550;28;20122;-73
2022/09/14 03:57:29;;;;;;;6.63;2.10;;;12.60;99.90;;;;;;4958420;28;20101;-73
2022/09/14 03:59:55;;;;;;;4.43;1.80;;;12.60;99.90;;;;;;4975518;28;20047;-73
2022/09/14 04:02:20;;;;;;;4.63;1.65;;;12.70;99.90;;;;;;4975706;28;20134;-74
2022/09/14 04:04:47;;;;;;;6.95;1.70;;;12.70;99.90;;;;;;4975728;28;20081;-72
2022/09/14 04:07:14;;;;;;;6.10;1.92;;;12.70;99.90;;;;;;4975371;28;20050;-73
2022/09/14 04:09:40;;;;;;;5.63;1.73;;;12.70;99.90;;;;;;4975660;28;20050;-73
2022/09/14 04:12:06;;;;;;;6.60;1.98;;;12.80;99.90;;;;;;4975344;28;20537;-73
2022/09/14 04:14:32;;;;;;;6.65;1.75;;;12.70;99.90;;;;;;4958312;28;20050;-73
2022/09/14 04:16:57;;;;;;;6.38;1.52;;;12.70;99.90;;;;;;4975357;28;20499;-72
2022/09/14 04:19:23;;;;;;;5.20;1.80;;;12.80;99.90;;;;;;4958306;28;20102;-73
2022/09/14 04:21:49;;;;;;;6.07;1.85;;;12.80;99.90;;;;;;4975201;28;20050;-73
2022/09/14 04:24:14;;;;;;;6.20;1.70;;;12.80;99.90;;;;;;4957828;28;20113;-73
2022/09/14 04:26:40;;;;;;;7.25;1.70;;;12.80;99.90;;;;;;4975068;28;20049;-73
2022/09/14 04:29:06;;;;;;;9.38;2.10;;;12.80;99.90;;;;;;4957883;28;20047;-73
2022/09/14 04:31:31;;;;;;;6.60;1.85;;;12.80;99.90;;;;;;4975345;28;20050;-73
2022/09/14 04:33:57;;;;;;;6.18;1.88;;;12.90;99.90;;;;;;4957918;28;20082;-74
2022/09/14 04:36:27;;;;;;;6.47;2.38;;;12.80;99.90;;;;;;4957821;28;20105;-71
2022/09/14 04:38:54;;;;;;;7.38;2.00;;;12.80;99.90;;;;;;4974818;28;20093;-73
2022/09/14 04:41:20;;;;;;;6.72;2.08;;;13.00;99.90;;;;;;4957826;28;20046;-74
2022/09/14 04:43:49;;;;;;;6.90;2.25;;;13.00;99.90;;;;;;4957999;28;20057;-73
2022/09/14 04:46:20;;;;;;;8.18;2.38;;;13.00;99.90;;;;;;4974671;28;20047;-71
2022/09/14 04:48:47;;;;;;;5.32;2.00;;;12.90;99.90;;;;;;4957340;28;20055;-73
2022/09/14 04:51:18;;;;;;;7.20;2.30;;;13.00;99.90;;;;;;4974703;28;20046;-71
2022/09/14 04:53:46;;;;;;;7.88;2.53;;;13.00;99.90;;;;;;4957323;28;20051;-70
2022/09/14 04:56:13;;;;;;;7.72;2.50;;;13.00;99.90;;;;;;4957153;28;20098;-73
2022/09/14 04:58:43;;;;;;;7.05;1.83;;;13.00;99.90;;;;;;4957258;28;20058;-72
2022/09/14 05:01:12;;;;;;;6.25;2.20;;;13.00;99.90;;;;;;4974573;28;20479;-73
2022/09/14 05:03:38;;;;;;;8.05;2.40;;;13.00;99.90;;;;;;4974794;28;20046;-73
2022/09/14 05:06:15;;;;;;;8.75;1.92;;;13.10;99.90;;;;;;4974693;28;20082;-73
2022/09/14 05:08:41;;;;;;;5.68;2.10;;;13.10;99.90;;;;;;4973964;28;20050;-71
2022/09/14 05:11:08;;;;;;;8.23;2.28;;;13.10;99.90;;;;;;4974260;28;20042;-73
2022/09/14 05:13:34;;;;;;;4.88;1.98;;;13.00;99.90;;;;;;4974378;28;20510;-73
2022/09/14 05:16:20;;;;;;;6.82;1.90;;;13.10;99.90;;;;;;4974457;28;20042;-73
2022/09/14 05:18:47;;;;;;;5.15;1.98;;;13.20;99.90;;;;;;4974516;28;20047;-73
2022/09/14 05:21:15;;;;;;;7.68;2.30;;;13.00;99.90;;;;;;4974263;28;20082;-73
2022/09/14 05:23:42;;;;;;;6.65;2.10;;;13.00;99.90;;;;;;4973791;28;20497;-73
2022/09/14 05:26:07;;;;;;;5.25;1.88;;;13.10;99.90;;;;;;4956801;28;20054;-73
2022/09/14 05:28:34;;;;;;;6.43;2.17;;;13.10;99.90;;;;;;4956969;28;20451;-73
2022/09/14 05:31:09;;;;;;;4.68;1.80;;;13.10;99.90;;;;;;4956786;28;20129;-73
2022/09/14 05:33:35;;;;;;;8.38;1.83;;;13.20;99.90;;;;;;4974254;28;20054;-73
2022/09/14 05:36:06;;;;;;;5.68;2.00;;;13.20;99.90;;;;;;4956836;28;20504;-75
2022/09/14 05:38:33;;;;;;;8.15;2.28;;;13.10;99.90;;;;;;4973772;28;20050;-72
2022/09/14 05:40:59;;;;;;;6.50;1.92;;;13.20;99.90;;;;;;4973648;28;20075;-74
2022/09/14 05:43:27;;;;;;;6.82;2.15;;;13.20;99.90;;;;;;4969603;28;20085;-73
2022/09/14 05:45:53;;;;;;;7.72;1.85;;;13.20;99.90;;;;;;4956481;28;20058;-76
2022/09/14 05:48:18;;;;;;;5.63;1.98;;;13.20;99.90;;;;;;4938322;28;20059;-73
2022/09/14 05:50:44;;;;;;;5.47;1.85;;;13.20;99.90;;;;;;4972435;28;20632;-75
2022/09/14 05:53:10;;;;;;;7.25;2.00;;;13.40;99.90;;;;;;4971883;28;20072;-75
2022/09/14 05:55:36;;;;;;;5.30;1.85;;;13.30;99.90;;;;;;4971254;28;20130;-72
2022/09/14 05:58:01;;;;;;;9.35;2.08;;;13.30;99.90;;;;;;4972463;28;20473;-76
2022/09/14 06:00:28;;;;;;;8.73;1.95;;;13.40;99.90;;;;;;4971982;28;20054;-75
2022/09/14 06:02:54;;;;;;;5.13;1.98;;;13.30;99.90;;;;;;4955710;28;20381;-74
2022/09/14 06:05:20;;;;;;;6.00;2.53;;;13.40;99.90;;;;;;4971422;28;20526;-75
2022/09/14 06:07:53;;;;;;;6.03;2.28;;;13.40;99.90;;;;;;4955245;28;20224;-76
2022/09/14 06:10:20;;;;;;;6.00;2.00;;;13.40;99.90;;;;;;4954153;28;20053;-75
2022/09/14 06:12:46;;;;;;;5.38;1.85;;;13.50;99.90;;;;;;4955590;28;20051;-75
2022/09/14 06:15:11;;;;;;;7.03;2.05;;;13.50;99.90;;;;;;4973736;28;20475;-76
2022/09/14 06:17:37;;;;;;;5.00;1.70;;;13.50;99.90;;;;;;4956518;28;20055;-76
2022/09/14 06:20:06;;;;;;;4.50;1.70;;;13.50;99.90;;;;;;4974055;28;20389;-76
2022/09/14 06:22:32;;;;;;;8.30;1.95;;;13.50;99.90;;;;;;4973801;28;20113;-76
2022/09/14 06:24:58;;;;;;;5.72;1.90;;;13.70;99.90;;;;;;4973677;28;20046;-76
2022/09/14 06:27:24;;;;;;;4.22;1.63;;;13.60;99.90;;;;;;4973274;28;20058;-76
2022/09/14 06:29:52;;;;;;;5.35;1.70;;;13.70;99.90;;;;;;4973757;28;20117;-75
2022/09/14 06:32:18;;;;;;;6.30;1.63;;;13.70;99.90;;;;;;4973856;28;20130;-76
2022/09/14 06:34:44;;;;;;;6.10;1.85;;;13.80;99.90;;;;;;4973934;28;20074;-77
2022/09/14 06:37:10;;;;;;;7.72;2.30;;;13.90;99.90;;;;;;4956515;28;20066;-76
2022/09/14 06:39:36;;;;;;;6.90;2.00;;;13.90;99.90;;;;;;4974007;28;20055;-75
2022/09/14 06:42:01;;;;;;;5.47;1.90;;;13.90;99.90;;;;;;4973511;28;20049;-73
2022/09/14 06:44:27;;;;;;;6.43;1.90;;;13.90;99.90;;;;;;4973594;28;20487;-75
2022/09/14 06:46:53;;;;;;;6.57;1.98;;;14.00;99.90;;;;;;4973689;28;20046;-76
2022/09/14 06:49:21;;;;;;;4.97;1.88;;;14.10;99.90;;;;;;4940163;28;20059;-74
2022/09/14 06:51:49;;;;;;;7.82;1.77;;;14.10;99.90;;;;;;4956290;28;20101;-75
2022/09/14 06:54:16;;;;;;;5.78;1.88;;;14.20;99.90;;;;;;4973635;28;20043;-75
2022/09/14 06:56:43;;;;;;;6.10;1.95;;;14.30;99.90;;;;;;4972697;28;20495;-76
2022/09/14 06:59:10;;;;;;;10.18;2.45;;;14.30;99.90;;;;;;4973585;28;20053;-73
2022/09/14 07:01:36;;;;;;;6.57;1.98;;;14.40;99.90;;;;;;4955955;28;20054;-76
2022/09/14 07:04:04;;;;;;;8.20;2.45;;;14.40;99.90;;;;;;4973436;28;20046;-76
2022/09/14 07:06:39;;;;;;;8.75;2.10;;;14.60;99.90;;;;;;4975535;28;20051;-84
2022/09/14 07:09:05;;;;;;;4.85;1.90;;;14.70;99.90;;;;;;4956688;28;20517;-73
2022/09/14 07:11:31;;;;;;;6.80;2.13;;;14.80;99.90;;;;;;4974124;28;20043;-79
2022/09/14 07:14:01;;;;;;;7.10;2.22;;;14.80;99.90;;;;;;4957819;28;20051;-79
2022/09/14 07:16:28;;;;;;;8.00;2.22;;;14.90;99.90;;;;;;4967971;28;20066;-82
2022/09/14 07:18:58;;;;;;;7.40;2.33;;;15.00;99.90;;;;;;4966036;28;20061;-76
2022/09/14 07:21:25;;;;;;;6.35;2.03;;;15.00;99.90;;;;;;4966213;28;20065;-75
2022/09/14 07:23:51;;;;;;;6.22;2.20;;;15.10;99.90;;;;;;4985911;28;20054;-75
2022/09/14 07:26:22;;;;;;;6.97;2.45;;;15.20;99.90;;;;;;4977891;28;20051;-71
2022/09/14 07:28:51;;;;;;;5.80;1.90;;;15.30;99.90;;;;;;4956765;28;20054;-75
2022/09/14 07:31:20;;;;;;;8.38;2.20;;;15.40;99.90;;;;;;4974034;28;20487;-72
2022/09/14 07:33:47;;;;;;;6.50;2.25;;;15.50;99.90;;;;;;4957307;28;20502;-75
2022/09/14 07:36:13;;;;;;;6.82;2.13;;;15.60;99.90;;;;;;4974915;28;20101;-74
2022/09/14 07:38:42;;;;;;;8.25;2.10;;;15.70;99.90;;;;;;4974115;28;20098;-74
2022/09/14 07:41:08;;;;;;;9.63;2.03;;;15.80;99.90;;;;;;4957094;28;20518;-73
2022/09/14 07:43:34;;;;;;;5.43;2.33;;;16.00;99.90;;;;;;4958000;28;20051;-74
2022/09/14 07:46:04;;;;;;;8.95;2.35;;;16.00;99.90;;;;;;4958933;28;20081;-75
2022/09/14 07:48:31;;;;;;;8.88;2.28;;;16.10;99.90;;;;;;4966505;28;20410;-73
2022/09/14 07:51:09;;;;;;;7.53;2.20;;;16.30;99.90;;;;;;4958640;28;20047;-74
2022/09/14 07:53:37;;;;;;;8.60;2.95;;;16.40;99.90;;;;;;4957101;28;20070;-74
2022/09/14 07:56:06;;;;;;;9.98;2.60;;;16.60;99.90;;;;;;4956829;28;20058;-76
2022/09/14 07:58:32;;;;;;;5.03;1.58;;;16.70;99.90;;;;;;4956664;28;20141;-75
2022/09/14 08:01:03;;;;;;;7.65;1.55;;;16.80;99.90;;;;;;4957083;28;20081;-74
2022/09/14 08:03:30;;;;;;;6.85;1.50;;;16.80;99.90;;;;;;4956551;28;20137;-75
2022/09/14 08:06:05;;;;;;;4.45;1.20;;;16.80;99.90;;;;;;4957158;28;20086;-75
2022/09/14 08:08:32;;;;;;;4.45;1.50;;;16.80;99.90;;;;;;4970333;28;20047;-73
2022/09/14 08:11:10;;;;;;;10.05;1.73;;;16.80;99.90;;;;;;4956963;28;20487;-76
2022/09/14 08:13:37;;;;;;;5.53;1.30;;;16.90;99.90;;;;;;4938160;28;20498;-75
2022/09/14 08:16:04;;;;;;;4.00;1.48;;;16.90;99.90;;;;;;4956241;28;20038;-75
2022/09/14 08:18:35;;;;;;;4.95;1.20;;;17.00;99.90;;;;;;4956846;28;20070;-73
2022/09/14 08:21:05;;;;;;;4.20;1.10;;;17.00;99.90;;;;;;4956842;28;20050;-74
2022/09/14 08:23:31;;;;;;;6.15;1.20;;;17.10;99.90;;;;;;4953857;28;20050;-73
2022/09/14 08:26:05;;;;;;;5.25;1.10;;;17.20;99.90;;;;;;4973499;28;20058;-74
2022/09/14 08:28:31;;;;;;;7.18;1.30;;;17.20;99.90;;;;;;4957260;28;20062;-75
2022/09/14 08:31:05;;;;;;;3.28;1.10;;;17.30;99.90;;;;;;4955881;28;20055;-77
2022/09/14 08:33:32;;;;;;;6.05;1.35;;;17.30;99.90;;;;;;4970837;28;20058;-75
2022/09/14 08:35:59;;;;;;;5.05;1.30;;;17.30;99.90;;;;;;4973454;28;20093;-73
2022/09/14 08:38:24;;;;;;;4.22;1.20;;;17.40;99.90;;;;;;4956627;28;20502;-76
2022/09/14 08:40:50;;;;;;;4.47;1.30;;;17.40;99.90;;;;;;4956168;28;20069;-77
2022/09/14 08:43:19;;;;;;;3.22;1.10;;;17.40;99.90;;;;;;4955634;28;20054;-75
2022/09/14 08:45:47;;;;;;;5.75;1.20;;;17.50;99.90;;;;;;4973429;28;20465;-72
2022/09/14 08:48:28;;;;;;;3.00;0.90;;;17.60;99.90;;;;;;4971003;28;20046;-74
2022/09/14 08:50:54;;;;;;;7.57;1.40;;;17.70;99.90;;;;;;4953306;28;20576;-74
2022/09/14 08:53:21;;;;;;;9.93;1.50;;;17.80;99.90;;;;;;4956487;28;20126;-74
2022/09/14 08:56:04;;;;;;;6.25;1.20;;;17.90;99.90;;;;;;4973731;28;20042;-75
2022/09/14 08:58:53;;;;;;;4.30;0.82;;;18.00;99.90;;;;;;4982446;28;20043;-76
2022/09/14 09:01:42;;;;;;;6.13;1.02;;;18.00;99.90;;;;;;4980193;28;20054;-74
2022/09/14 09:04:20;;;;;;;7.88;1.08;;;18.10;99.90;;;;;;4904209;29;20131;-72
2022/09/14 09:06:52;;;;;;;2.08;0.73;;;18.10;99.90;;;;;;4914781;29;20095;-73
2022/09/14 09:09:38;;;;;;;3.42;0.77;;;18.10;99.90;;;;;;4911196;29;20067;-75
2022/09/14 09:12:04;;;;;;;6.50;1.15;;;18.10;99.90;;;;;;4896754;29;20568;-74
2022/09/14 09:14:34;;;;;;;4.55;1.00;;;18.10;99.90;;;;;;4895531;29;20116;-75
2022/09/14 09:17:09;;;;;;;4.60;1.00;;;18.10;99.90;;;;;;4899372;29;20063;-74
2022/09/14 09:19:48;;;;;;;5.60;1.30;;;18.10;99.90;;;;;;4911815;29;20056;-74
2022/09/14 09:22:19;;;;;;;4.45;0.98;;;18.20;99.90;;;;;;4911814;29;20067;-73
2022/09/14 09:24:49;;;;;;;9.02;1.33;;;18.30;99.90;;;;;;4895855;29;20161;-73
2022/09/14 09:27:15;;;;;;;7.57;1.50;;;18.30;99.90;;;;;;4911521;29;20063;-73
2022/09/14 09:29:41;;;;;;;6.50;1.20;;;18.40;99.90;;;;;;4911135;29;20508;-73
2022/09/14 09:32:15;;;;;;;6.22;1.30;;;18.40;99.90;;;;;;4911262;29;20128;-74
2022/09/14 09:34:41;;;;;;;6.53;1.10;;;18.40;99.90;;;;;;4912245;29;20139;-74
2022/09/14 09:37:22;;;;;;;5.88;1.08;;;18.50;99.90;;;;;;4911211;29;20139;-73
2022/09/14 09:39:48;;;;;;;4.88;1.05;;;18.60;99.90;;;;;;4912061;29;20047;-75
2022/09/14 09:42:22;;;;;;;7.53;1.08;;;18.70;99.90;;;;;;4950463;28;20062;-75
2022/09/14 09:45:09;;;;;;;4.20;0.90;;;18.90;99.90;;;;;;4954218;28;20372;-73
2022/09/14 09:47:37;;;;;;;6.32;1.63;;;19.10;99.90;;;;;;4969823;28;20066;-76
2022/09/14 09:50:17;;;;;;;11.57;1.20;;;19.30;99.90;;;;;;4970997;28;20063;-75
2022/09/14 09:52:53;;;;;;;3.40;0.85;;;19.50;99.90;;;;;;4968628;28;20054;-75
2022/09/14 09:55:21;;;;;;;3.92;1.05;;;19.60;99.90;;;;;;4970903;28;20051;-74
2022/09/14 09:57:47;;;;;;;9.68;1.15;;;19.80;99.90;;;;;;4970417;28;20082;-74
2022/09/14 10:00:13;;;;;;;7.18;1.10;;;19.70;99.90;;;;;;4970991;28;20132;-74
2022/09/14 10:02:40;;;;;;;6.82;0.95;;;19.70;99.90;;;;;;4970645;28;20502;-72
2022/09/14 10:05:43;;;;;;;7.65;1.10;;;19.60;99.90;;;;;;4970587;28;20558;-74
2022/09/14 10:08:14;;;;;;;4.53;1.08;;;19.60;99.90;;;;;;4880129;29;20055;-75
2022/09/14 10:10:42;;;;;;;6.25;1.08;;;19.50;99.90;;;;;;4863671;29;20053;-75
2022/09/14 10:13:27;;;;;;;6.63;1.27;;;19.40;99.90;;;;;;4901950;29;20040;-74
2022/09/14 10:16:03;;;;;;;5.68;1.05;;;19.40;99.90;;;;;;4901335;29;20052;-74
2022/09/14 10:18:29;;;;;;;4.43;1.00;;;19.40;99.90;;;;;;4892652;29;20144;-74
2022/09/14 10:20:58;;;;;;;8.52;1.20;;;19.50;99.90;;;;;;4894612;29;20401;-77
2022/09/14 10:23:26;;;;;;;3.35;0.95;;;19.70;99.90;;;;;;4878500;29;20048;-77
2022/09/14 10:26:13;;;;;;;6.38;1.10;;;19.80;99.90;;;;;;4879110;29;20083;-79
2022/09/14 10:28:48;;;;;;;7.35;1.38;;;20.00;99.90;;;;;;4885265;29;20506;-78
2022/09/14 10:31:23;;;;;;;4.20;1.00;;;20.10;99.90;;;;;;4896753;29;20463;-79
2022/09/14 10:33:55;;;;;;;8.20;1.10;;;20.30;99.90;;;;;;4894859;29;20044;-79
2022/09/14 10:36:30;;;;;;;3.92;0.98;;;20.20;99.90;;;;;;4894683;29;20052;-76
2022/09/14 10:39:15;;;;;;;8.35;1.02;;;20.20;99.90;;;;;;4895106;29;20048;-72
2022/09/14 10:41:59;;;;;;;3.90;0.70;;;20.10;99.90;;;;;;4919403;28;20492;-74
2022/09/14 10:45:02;;;;;;;4.43;0.90;;;20.00;99.90;;;;;;4957750;28;20082;-75
2022/09/14 10:48:05;;;;;;;3.85;0.77;;;20.00;99.90;;;;;;4954841;28;20063;-76
2022/09/14 10:51:23;;;;;;;4.47;1.00;;;20.10;99.90;;;;;;4957483;28;20535;-76
2022/09/14 10:54:19;;;;;;;2.65;0.82;;;20.20;99.90;;;;;;4917512;29;20066;-74
2022/09/14 10:57:13;;;;;;;6.80;0.85;;;20.20;99.90;;;;;;4931533;29;20059;-75
2022/09/14 10:59:42;;;;;;;4.88;1.00;;;20.50;99.90;;;;;;4912684;29;20044;-76
2022/09/14 11:02:10;;;;;;;7.05;1.10;;;20.80;99.90;;;;;;4927261;29;20059;-78
2022/09/14 11:04:52;;;;;;;4.55;0.90;;;20.70;99.90;;;;;;4929217;29;20416;-76
2022/09/14 11:07:31;;;;;;;5.63;0.95;;;20.70;99.90;;;;;;4916114;29;20122;-77
2022/09/14 11:10:05;;;;;;;6.35;1.20;;;20.80;99.90;;;;;;4932868;29;20599;-77
2022/09/14 11:12:58;;;;;;;3.83;1.08;;;20.90;99.90;;;;;;4911241;29;20047;-74
2022/09/14 11:15:30;;;;;;;4.82;0.98;;;21.00;99.90;;;;;;4928038;28;20051;-79
2022/09/14 11:18:19;;;;;;;3.00;1.00;;;21.30;99.90;;;;;;4931923;29;20043;-76
2022/09/14 11:20:59;;;;;;;4.15;1.00;;;21.50;99.90;;;;;;4931523;29;20047;-73
2022/09/14 11:23:37;;;;;;;7.03;1.20;;;21.50;99.90;;;;;;4917651;29;20055;-70
2022/09/14 11:26:12;;;;;;;3.42;1.30;;;21.40;99.90;;;;;;4916458;29;20043;-74
2022/09/14 11:29:27;;;;;;;2.80;0.73;;;21.10;99.90;;;;;;4921546;28;20089;-68
2022/09/14 11:31:56;;;;;;;2.90;0.77;;;20.90;99.90;;;;;;4952318;28;20098;-68
2022/09/14 11:34:46;;;;;;;5.13;1.10;;;20.80;99.90;;;;;;4973666;28;20141;-79
2022/09/14 11:37:15;;;;;;;4.05;0.93;;;20.70;99.90;;;;;;4970660;28;20069;-69
2022/09/14 11:39:54;;;;;;;3.55;0.93;;;20.70;99.90;;;;;;4957946;28;20039;-77
2022/09/14 11:42:29;;;;;;;5.15;0.90;;;20.60;99.90;;;;;;4974969;28;20055;-75
2022/09/14 11:45:19;;;;;;;5.30;1.17;;;20.50;99.90;;;;;;4956897;28;20049;-68
2022/09/14 11:47:58;;;;;;;5.82;1.30;;;20.40;99.90;;;;;;4972663;28;20074;-70
2022/09/14 11:50:27;;;;;;;6.78;1.88;;;20.20;99.90;;;;;;4973225;28;20046;-72
2022/09/14 11:53:03;;;;;;;6.57;1.40;;;20.00;99.90;;;;;;4973359;28;20591;-72
2022/09/14 11:55:30;;;;;;;6.75;1.55;;;19.90;99.90;;;;;;4973732;28;20043;-72
2022/09/14 11:57:57;;;;;;;7.90;1.60;;;19.80;99.90;;;;;;4973680;28;20137;-76
2022/09/14 12:00:23;;;;;;;6.47;1.45;;;19.90;99.90;;;;;;4973013;28;20130;-75
2022/09/14 12:03:13;;;;;;;8.63;1.08;;;19.80;99.90;;;;;;4974926;28;20129;-75
2022/09/14 12:05:39;;;;;;;7.47;1.67;;;19.70;99.90;;;;;;4975051;28;20071;-74
2022/09/14 12:08:25;;;;;;;5.57;1.05;;;19.60;99.90;;;;;;4955166;28;20082;-73
2022/09/14 12:11:23;;;;;;;5.50;1.10;;;19.60;99.90;;;;;;4953999;28;20061;-72
2022/09/14 12:14:09;;;;;;;6.30;1.80;;;19.50;99.90;;;;;;4953995;28;20055;-74
2022/09/14 12:17:00;;;;;;;6.80;1.25;;;19.50;99.90;;;;;;4954328;28;20499;-74
2022/09/14 12:19:26;;;;;;;4.57;1.20;;;19.50;99.90;;;;;;4952549;28;20051;-75
2022/09/14 12:21:52;;;;;;;4.90;0.98;;;19.50;99.90;;;;;;4972181;28;20124;-73
2022/09/14 12:24:21;;;;;;;6.32;1.00;;;19.60;99.90;;;;;;4971416;28;20035;-77
2022/09/14 12:26:47;;;;;;;6.28;0.80;;;19.80;99.90;;;;;;4972485;28;20054;-77
2022/09/14 12:29:30;;;;;;;4.53;0.80;;;20.00;99.90;;;;;;4956344;28;20419;-75
2022/09/14 12:32:00;;;;;;;4.18;0.93;;;20.20;99.90;;;;;;4972430;28;20070;-75
2022/09/14 12:34:30;;;;;;;5.10;1.00;;;20.30;99.90;;;;;;4972579;28;20038;-73
2022/09/14 12:36:58;;;;;;;4.07;1.00;;;20.20;99.90;;;;;;4970173;28;20507;-75
2022/09/14 12:39:29;;;;;;;8.65;1.30;;;20.20;99.90;;;;;;4971806;28;20491;-75
2022/09/14 12:41:55;;;;;;;3.70;1.10;;;20.20;99.90;;;;;;4955293;28;20047;-76
2022/09/14 12:44:34;;;;;;;5.53;1.20;;;20.10;99.90;;;;;;4955007;28;20322;-75
2022/09/14 12:47:24;;;;;;;4.80;1.63;;;20.10;99.90;;;;;;4970306;28;20081;-77
2022/09/14 12:49:53;;;;;;;6.95;1.45;;;20.10;99.90;;;;;;4972493;28;20109;-76
2022/09/14 12:52:26;;;;;;;5.00;1.10;;;20.10;99.90;;;;;;4970584;28;20495;-75
2022/09/14 12:55:07;;;;;;;3.85;1.20;;;20.10;99.90;;;;;;4973258;28;20091;-73
2022/09/14 12:57:43;;;;;;;4.45;1.38;;;20.00;99.90;;;;;;4952672;28;20114;-71
2022/09/14 13:00:16;;;;;;;6.43;1.65;;;20.30;99.90;;;;;;4971199;28;20086;-71
2022/09/14 13:02:46;;;;;;;5.10;1.30;;;20.60;99.90;;;;;;4970274;28;20596;-76
2022/09/14 13:05:18;;;;;;;4.85;1.40;;;20.90;99.90;;;;;;4954250;28;20043;-75
2022/09/14 13:07:44;;;;;;;5.32;1.15;;;21.10;99.90;;;;;;4953130;28;20499;-73